createdAt,value
2023-04-01T00:00:37.761Z,94640.53
2023-04-01T00:01:39.425Z,94646.44
2023-04-01T00:02:41.809Z,94636.69
2023-04-01T00:03:43.869Z,94638.50
2023-04-01T00:04:45.714Z,94650.75
2023-04-01T00:05:47.513Z,94650.50
2023-04-01T00:06:49.128Z,94648.13
2023-04-01T00:07:51.204Z,94640.31
2023-04-01T00:08:54.069Z,94649.47
2023-04-01T00:09:57.001Z,94655.38
2023-04-01T00:10:58.813Z,94644.84
2023-04-01T00:12:00.594Z,94642.69
2023-04-01T00:13:02.211Z,94644.50
2023-04-01T00:14:03.902Z,94640.53
2023-04-01T00:15:08.340Z,94630.91
2023-04-01T00:16:21.140Z,94631.94
2023-04-01T00:17:24.118Z,94635.09
2023-04-01T00:18:26.090Z,94633.06
2023-04-01T00:19:27.718Z,94635.22
2023-04-01T00:20:30.387Z,94633.75
2023-04-01T00:21:32.083Z,94635.22
2023-04-01T00:22:34.877Z,94619.72
2023-04-01T00:23:37.011Z,94629.91
2023-04-01T00:24:39.531Z,94638.28
2023-04-01T00:25:41.116Z,94625.81
2023-04-01T00:26:43.432Z,94635.69
2023-04-01T00:27:45.385Z,94627.41
2023-04-01T00:28:47.343Z,94637.63
2023-04-01T00:29:49.164Z,94629.13
2023-04-01T00:30:50.864Z,94631.38
2023-04-01T00:31:52.582Z,94640.66
2023-04-01T00:32:54.693Z,94627.31
2023-04-01T00:33:57.214Z,94640.09
2023-04-01T00:35:00.496Z,94639.88
2023-04-01T00:36:13.066Z,94630.25
2023-04-01T00:37:14.833Z,94632.84
2023-04-01T00:38:17.882Z,94632.03
2023-04-01T00:39:20.471Z,94642.91
2023-04-01T00:40:32.447Z,94641.47
2023-04-01T00:41:34.026Z,94639.63
2023-04-01T00:42:35.681Z,94631.94
2023-04-01T00:43:37.482Z,94642.34
2023-04-01T00:44:39.394Z,94638.88
2023-04-01T00:45:43.836Z,94641.91
2023-04-01T00:46:45.484Z,94641.69
2023-04-01T00:47:47.376Z,94633.88
2023-04-01T00:48:53.935Z,94627.19
2023-04-01T00:49:56.064Z,94625.41
2023-04-01T00:50:57.631Z,94629.91
2023-04-01T00:52:01.130Z,94630.50
2023-04-01T00:53:03.527Z,94627.41
2023-04-01T00:54:05.457Z,94621.66
2023-04-01T00:55:08.358Z,94625.16
2023-04-01T00:56:27.951Z,94625.94
2023-04-01T00:57:33.336Z,94629.81
2023-04-01T00:58:39.470Z,94626.66
2023-04-01T00:59:44.421Z,94628.31
2023-04-01T01:00:47.872Z,94619.59
2023-04-01T01:01:49.629Z,94624.47
2023-04-01T01:02:51.941Z,94627.09
2023-04-01T01:03:57.095Z,94624.72
2023-04-01T01:04:58.643Z,94625.03
2023-04-01T01:06:04.947Z,94624.72
2023-04-01T01:07:38.133Z,94630.47
2023-04-01T01:08:53.913Z,94625.38
2023-04-01T01:10:07.160Z,94632.16
2023-04-01T01:11:11.578Z,94631.41
2023-04-01T01:12:17.226Z,94627.53
2023-04-01T01:13:37.476Z,94624.47
2023-04-01T01:14:42.733Z,94626.53
2023-04-01T01:15:47.469Z,94630.94
2023-04-01T01:16:57.365Z,94633.56
2023-04-01T01:17:59.047Z,94634.22
2023-04-01T01:19:13.632Z,94620.28
2023-04-01T01:20:48.946Z,94625.03
2023-04-01T01:22:01.973Z,94622.56
2023-04-01T01:23:30.990Z,94624.25
2023-04-01T01:24:42.434Z,94624.25
2023-04-01T01:25:53.063Z,94626.31
2023-04-01T01:27:32.970Z,94617.69
2023-04-01T01:28:37.529Z,94619.72
2023-04-01T01:29:45.060Z,94613.34
2023-04-01T01:31:16.544Z,94609.84
2023-04-01T01:32:23.791Z,94625.47
2023-04-01T01:33:31.430Z,94618.13
2023-04-01T01:34:57.022Z,94608.47
2023-04-01T01:36:00.905Z,94611.53
2023-04-01T01:37:08.231Z,94613.81
2023-04-01T01:38:15.313Z,94613.00
2023-04-01T01:39:21.435Z,94610.28
2023-04-01T01:40:23.391Z,94615.06
2023-04-01T01:41:27.521Z,94615.06
2023-04-01T01:42:30.467Z,94610.44
2023-04-01T01:43:36.755Z,94607.91
2023-04-01T01:44:39.226Z,94606.91
2023-04-01T01:45:42.144Z,94615.06
2023-04-01T01:46:45.990Z,94609.16
2023-04-01T01:47:48.615Z,94620.50
2023-04-01T01:48:51.724Z,94611.88
2023-04-01T01:49:54.507Z,94612.22
2023-04-01T01:50:56.387Z,94608.59
2023-04-01T01:51:58.449Z,94612.91
2023-04-01T01:53:12.253Z,94623.19
2023-04-01T01:54:15.666Z,94604.31
2023-04-01T01:55:32.416Z,94610.06
2023-04-01T01:56:36.345Z,94605.31
2023-04-01T01:57:39.569Z,94613.03
2023-04-01T01:58:52.545Z,94609.50
2023-04-01T01:59:59.894Z,94610.50
2023-04-01T02:01:05.691Z,94604.59
2023-04-01T02:02:09.098Z,94608.69
2023-04-01T02:03:12.126Z,94608.91
2023-04-01T02:04:15.910Z,94613.09
2023-04-01T02:05:24.011Z,94608.53
2023-04-01T02:06:28.973Z,94610.59
2023-04-01T02:07:34.233Z,94609.47
2023-04-01T02:09:03.941Z,94605.97
2023-04-01T02:10:06.701Z,94606.88
2023-04-01T02:11:13.955Z,94619.69
2023-04-01T02:12:18.607Z,94606.75
2023-04-01T02:13:23.178Z,94611.72
2023-04-01T02:14:28.607Z,94621.47
2023-04-01T02:15:32.591Z,94614.34
2023-04-01T02:16:44.572Z,94621.00
2023-04-01T02:17:47.149Z,94624.63
2023-04-01T02:18:51.342Z,94616.94
2023-04-01T02:19:53.159Z,94623.72
2023-04-01T02:20:58.202Z,94622.34
2023-04-01T02:22:02.472Z,94625.28
2023-04-01T02:23:04.614Z,94614.75
2023-04-01T02:24:10.300Z,94627.56
2023-04-01T02:25:14.374Z,94633.78
2023-04-01T02:26:16.449Z,94628.34
2023-04-01T02:27:18.247Z,94624.16
2023-04-01T02:28:21.530Z,94629.16
2023-04-01T02:29:26.358Z,94627.25
2023-04-01T02:30:30.293Z,94629.97
2023-04-01T02:31:32.810Z,94632.09
2023-04-01T02:32:34.653Z,94632.09
2023-04-01T02:33:37.346Z,94633.13
2023-04-01T02:34:38.972Z,94626.28
2023-04-01T02:35:40.617Z,94633.22
2023-04-01T02:36:43.409Z,94636.16
2023-04-01T02:37:47.834Z,94631.53
2023-04-01T02:38:51.086Z,94634.25
2023-04-01T02:39:52.645Z,94642.50
2023-04-01T02:41:01.722Z,94632.44
2023-04-01T02:42:03.382Z,94631.31
2023-04-01T02:43:06.912Z,94636.16
2023-04-01T02:44:09.471Z,94647.38
2023-04-01T02:45:11.206Z,94635.25
2023-04-01T02:46:13.016Z,94641.78
2023-04-01T02:47:14.770Z,94635.78
2023-04-01T02:48:16.430Z,94634.53
2023-04-01T02:49:18.116Z,94641.06
2023-04-01T02:50:20.543Z,94638.03
2023-04-01T02:51:22.213Z,94642.75
2023-04-01T02:52:23.891Z,94637.31
2023-04-01T02:53:25.917Z,94639.22
2023-04-01T02:54:27.572Z,94646.47
2023-04-01T02:55:29.217Z,94642.97
2023-04-01T02:56:30.923Z,94640.56
2023-04-01T02:57:32.735Z,94645.59
2023-04-01T02:58:34.473Z,94646.31
2023-04-01T02:59:36.092Z,94643.47
2023-04-01T03:00:37.959Z,94643.34
2023-04-01T03:01:39.682Z,94653.53
2023-04-01T03:02:41.470Z,94654.00
2023-04-01T03:03:43.168Z,94659.31
2023-04-01T03:04:44.890Z,94654.88
2023-04-01T03:05:47.040Z,94653.41
2023-04-01T03:06:48.654Z,94657.03
2023-04-01T03:07:50.371Z,94649.25
2023-04-01T03:08:52.148Z,94644.63
2023-04-01T03:09:53.877Z,94651.59
2023-04-01T03:10:55.861Z,94648.09
2023-04-01T03:11:57.595Z,94642.34
2023-04-01T03:12:59.345Z,94644.16
2023-04-01T03:14:01.161Z,94647.50
2023-04-01T03:15:11.386Z,94647.72
2023-04-01T03:16:14.373Z,94646.94
2023-04-01T03:17:16.053Z,94644.88
2023-04-01T03:18:17.816Z,94642.22
2023-04-01T03:19:19.708Z,94643.97
2023-04-01T03:20:21.784Z,94643.00
2023-04-01T03:21:24.818Z,94652.41
2023-04-01T03:22:26.532Z,94644.28
2023-04-01T03:23:28.250Z,94655.94
2023-04-01T03:24:29.946Z,94648.22
2023-04-01T03:25:32.045Z,94658.59
2023-04-01T03:26:34.047Z,94652.75
2023-04-01T03:27:36.735Z,94649.03
2023-04-01T03:28:38.422Z,94655.41
2023-04-01T03:29:40.224Z,94658.13
2023-04-01T03:30:42.041Z,94657.66
2023-04-01T03:31:44.479Z,94651.28
2023-04-01T03:32:46.226Z,94660.47
2023-04-01T03:33:48.347Z,94658.44
2023-04-01T03:34:50.032Z,94665.59
2023-04-01T03:35:53.293Z,94665.25
2023-04-01T03:36:55.599Z,94656.78
2023-04-01T03:37:57.289Z,94668.13
2023-04-01T03:38:58.929Z,94666.31
2023-04-01T03:40:09.912Z,94665.19
2023-04-01T03:41:15.589Z,94663.47
2023-04-01T03:42:17.588Z,94672.22
2023-04-01T03:43:19.282Z,94680.81
2023-04-01T03:44:21.033Z,94662.28
2023-04-01T03:45:26.114Z,94678.22
2023-04-01T03:46:27.861Z,94671.47
2023-04-01T03:47:29.800Z,94662.53
2023-04-01T03:48:31.798Z,94660.28
2023-04-01T03:49:34.226Z,94668.44
2023-04-01T03:50:36.331Z,94671.72
2023-04-01T03:51:42.084Z,94665.16
2023-04-01T03:52:43.783Z,94660.53
2023-04-01T03:53:45.797Z,94665.41
2023-04-01T03:54:47.466Z,94673.91
2023-04-01T03:55:49.423Z,94667.56
2023-04-01T03:56:51.296Z,94663.56
2023-04-01T03:57:53.080Z,94672.19
2023-04-01T03:58:54.744Z,94669.81
2023-04-01T03:59:56.681Z,94665.81
2023-04-01T04:00:58.383Z,94671.50
2023-04-01T04:02:00.838Z,94659.75
2023-04-01T04:03:03.213Z,94670.47
2023-04-01T04:04:09.242Z,94665.63
2023-04-01T04:05:11.698Z,94677.50
2023-04-01T04:06:14.344Z,94671.50
2023-04-01T04:07:16.126Z,94669.47
2023-04-01T04:08:47.427Z,94673.00
2023-04-01T04:09:49.326Z,94673.00
2023-04-01T04:10:56.767Z,94667.09
2023-04-01T04:11:58.578Z,94673.78
2023-04-01T04:13:00.485Z,94671.25
2023-04-01T04:14:04.752Z,94682.00
2023-04-01T04:15:06.986Z,94672.38
2023-04-01T04:16:12.092Z,94672.38
2023-04-01T04:17:18.286Z,94672.84
2023-04-01T04:18:20.025Z,94670.59
2023-04-01T04:19:21.789Z,94673.19
2023-04-01T04:20:23.522Z,94681.31
2023-04-01T04:21:25.386Z,94675.03
2023-04-01T04:22:27.092Z,94672.53
2023-04-01T04:23:30.828Z,94677.41
2023-04-01T04:24:32.542Z,94680.81
2023-04-01T04:25:40.776Z,94674.44
2023-04-01T04:26:42.464Z,94680.66
2023-04-01T04:27:44.552Z,94673.19
2023-04-01T04:28:49.114Z,94675.56
2023-04-01T04:29:52.173Z,94668.88
2023-04-01T04:30:54.514Z,94675.72
2023-04-01T04:31:56.424Z,94665.81
2023-04-01T04:32:58.163Z,94673.00
2023-04-01T04:34:01.832Z,94680.44
2023-04-01T04:35:05.205Z,94675.50
2023-04-01T04:36:07.286Z,94670.84
2023-04-01T04:37:08.950Z,94673.09
2023-04-01T04:38:11.813Z,94664.16
2023-04-01T04:39:13.477Z,94675.50
2023-04-01T04:40:16.934Z,94679.31
2023-04-01T04:41:19.987Z,94668.63
2023-04-01T04:42:24.543Z,94665.75
2023-04-01T04:43:30.933Z,94681.09
2023-04-01T04:44:32.671Z,94667.50
2023-04-01T04:45:35.737Z,94676.38
2023-04-01T04:46:40.268Z,94679.56
2023-04-01T04:47:49.938Z,94677.16
2023-04-01T04:48:51.729Z,94669.44
2023-04-01T04:49:53.378Z,94672.63
2023-04-01T04:50:55.037Z,94667.53
2023-04-01T04:51:58.795Z,94671.19
2023-04-01T04:53:03.737Z,94664.63
2023-04-01T04:54:08.167Z,94668.13
2023-04-01T04:55:31.323Z,94668.59
2023-04-01T04:56:54.081Z,94670.16
2023-04-01T04:57:57.097Z,94672.09
2023-04-01T04:58:59.476Z,94673.22
2023-04-01T05:00:11.284Z,94669.50
2023-04-01T05:01:35.815Z,94661.81
2023-04-01T05:02:37.633Z,94663.72
2023-04-01T05:03:39.542Z,94666.22
2023-04-01T05:04:41.311Z,94659.41
2023-04-01T05:05:54.826Z,94663.16
2023-04-01T05:06:56.754Z,94663.50
2023-04-01T05:07:59.130Z,94668.84
2023-04-01T05:09:01.114Z,94666.44
2023-04-01T05:10:02.821Z,94666.59
2023-04-01T05:11:04.463Z,94664.31
2023-04-01T05:12:09.037Z,94673.72
2023-04-01T05:13:31.225Z,94666.03
2023-04-01T05:14:32.886Z,94665.34
2023-04-01T05:15:41.881Z,94661.25
2023-04-01T05:16:43.499Z,94664.75
2023-04-01T05:17:45.338Z,94667.25
2023-04-01T05:18:47.706Z,94665.97
2023-04-01T05:19:49.714Z,94670.94
2023-04-01T05:20:53.883Z,94666.31
2023-04-01T05:21:55.712Z,94676.53
2023-04-01T05:22:58.422Z,94660.69
2023-04-01T05:24:00.194Z,94663.16
2023-04-01T05:25:02.419Z,94663.06
2023-04-01T05:26:09.557Z,94661.94
2023-04-01T05:27:11.256Z,94657.06
2023-04-01T05:28:15.756Z,94661.84
2023-04-01T05:29:19.706Z,94655.47
2023-04-01T05:30:25.021Z,94659.31
2023-04-01T05:31:35.780Z,94652.63
2023-04-01T05:32:38.769Z,94655.91
2023-04-01T05:33:40.710Z,94660.22
2023-04-01T05:34:42.521Z,94655.13
2023-04-01T05:35:44.383Z,94657.63
2023-04-01T05:36:46.317Z,94658.28
2023-04-01T05:37:48.029Z,94657.81
2023-04-01T05:38:49.925Z,94648.34
2023-04-01T05:39:53.271Z,94659.41
2023-04-01T05:41:00.583Z,94653.88
2023-04-01T05:42:02.408Z,94657.53
2023-04-01T05:43:04.287Z,94660.34
2023-04-01T05:44:06.224Z,94646.44
2023-04-01T05:45:17.024Z,94648.50
2023-04-01T05:46:24.794Z,94655.28
2023-04-01T05:47:33.159Z,94654.72
2023-04-01T05:48:36.063Z,94642.41
2023-04-01T05:49:37.751Z,94657.69
2023-04-01T05:50:41.779Z,94648.84
2023-04-01T05:51:44.504Z,94649.06
2023-04-01T05:52:46.542Z,94656.22
2023-04-01T05:53:48.444Z,94651.69
2023-04-01T05:54:50.319Z,94651.25
2023-04-01T05:55:52.976Z,94647.41
2023-04-01T05:56:54.702Z,94658.16
2023-04-01T05:57:56.495Z,94666.09
2023-04-01T05:58:58.119Z,94651.03
2023-04-01T06:00:00.053Z,94662.56
2023-04-01T06:01:10.284Z,94661.31
2023-04-01T06:02:18.271Z,94652.13
2023-04-01T06:03:20.132Z,94660.84
2023-04-01T06:04:21.854Z,94659.84
2023-04-01T06:05:27.906Z,94655.50
2023-04-01T06:06:32.728Z,94658.53
2023-04-01T06:07:41.446Z,94661.44
2023-04-01T06:08:44.060Z,94660.84
2023-04-01T06:09:46.284Z,94656.69
2023-04-01T06:11:19.713Z,94657.94
2023-04-01T06:12:37.679Z,94667.25
2023-04-01T06:14:01.675Z,94665.72
2023-04-01T06:15:19.219Z,94666.75
2023-04-01T06:16:31.169Z,94657.06
2023-04-01T06:17:48.143Z,94653.50
2023-04-01T06:19:11.960Z,94660.03
2023-04-01T06:20:21.712Z,94663.72
2023-04-01T06:21:49.744Z,94668.00
2023-04-01T06:23:06.537Z,94663.25
2023-04-01T06:24:14.009Z,94667.25
2023-04-01T06:25:50.574Z,94658.00
2023-04-01T06:27:17.174Z,94664.31
2023-04-01T06:28:59.009Z,94673.19
2023-04-01T06:30:17.863Z,94670.13
2023-04-01T06:31:37.493Z,94672.72
2023-04-01T06:32:52.762Z,94673.22
2023-04-01T06:34:22.123Z,94676.84
2023-04-01T06:36:06.221Z,94677.00
2023-04-01T06:37:20.953Z,94681.31
2023-04-01T06:38:34.754Z,94678.31
2023-04-01T06:39:36.453Z,94677.50
2023-04-01T06:40:46.791Z,94675.66
2023-04-01T06:42:03.425Z,94678.69
2023-04-01T06:43:20.429Z,94669.53
2023-04-01T06:45:08.295Z,94679.84
2023-04-01T06:46:49.251Z,94666.28
2023-04-01T06:48:47.512Z,94664.25
2023-04-01T06:50:27.590Z,94657.13
2023-04-01T06:52:03.057Z,94660.19
2023-04-01T06:53:51.397Z,94662.38
2023-04-01T06:55:38.700Z,94664.50
2023-04-01T06:57:22.142Z,94657.63
2023-04-01T06:58:32.220Z,94661.56
2023-04-01T06:59:36.548Z,94654.72
2023-04-01T07:00:42.205Z,94648.50
2023-04-01T07:01:47.537Z,94658.94
2023-04-01T07:02:56.600Z,94661.41
2023-04-01T07:04:01.583Z,94661.78
2023-04-01T07:05:05.715Z,94658.66
2023-04-01T07:06:12.471Z,94665.75
2023-04-01T07:07:32.273Z,94655.50
2023-04-01T07:08:39.953Z,94667.16
2023-04-01T07:09:44.800Z,94657.06
2023-04-01T07:11:07.091Z,94678.69
2023-04-01T07:12:39.090Z,94669.34
2023-04-01T07:14:33.693Z,94664.34
2023-04-01T07:15:40.727Z,94673.56
2023-04-01T07:16:50.365Z,94666.78
2023-04-01T07:18:03.632Z,94669.66
2023-04-01T07:19:26.953Z,94671.53
2023-04-01T07:20:38.408Z,94676.53
2023-04-01T07:21:47.706Z,94675.22
2023-04-01T07:23:01.197Z,94668.66
2023-04-01T07:24:35.661Z,94668.78
2023-04-01T07:25:53.252Z,94676.66
2023-04-01T07:27:12.059Z,94681.50
2023-04-01T07:28:17.635Z,94685.16
2023-04-01T07:29:24.018Z,94671.06
2023-04-01T07:30:30.406Z,94672.13
2023-04-01T07:31:54.262Z,94677.53
2023-04-01T07:33:05.855Z,94673.41
2023-04-01T07:34:21.076Z,94674.56
2023-04-01T07:35:28.398Z,94675.56
2023-04-01T07:36:42.097Z,94674.47
2023-04-01T07:37:47.415Z,94679.47
2023-04-01T07:39:12.280Z,94666.50
2023-04-01T07:40:49.145Z,94675.72
2023-04-01T07:42:28.919Z,94681.44
2023-04-01T07:43:46.123Z,94667.56
2023-04-01T07:44:57.980Z,94669.81
2023-04-01T07:46:21.168Z,94674.34
2023-04-01T07:47:47.206Z,94680.38
2023-04-01T07:49:14.803Z,94680.72
2023-04-01T07:50:34.063Z,94671.88
2023-04-01T07:51:48.791Z,94679.75
2023-04-01T07:52:56.051Z,94674.19
2023-04-01T07:54:14.309Z,94691.06
2023-04-01T07:55:26.130Z,94691.13
2023-04-01T07:56:28.290Z,94679.31
2023-04-01T07:58:04.290Z,94680.91
2023-04-01T07:59:30.734Z,94671.47
2023-04-01T08:00:49.132Z,94673.94
2023-04-01T08:02:20.301Z,94685.78
2023-04-01T08:03:40.086Z,94682.06
2023-04-01T08:04:52.436Z,94687.00
2023-04-01T08:06:07.832Z,94685.09
2023-04-01T08:07:14.710Z,94680.25
2023-04-01T08:08:39.614Z,94672.94
2023-04-01T08:10:18.253Z,94685.13
2023-04-01T08:11:55.809Z,94687.88
2023-04-01T08:13:43.187Z,94678.44
2023-04-01T08:15:42.925Z,94685.03
2023-04-01T08:17:17.039Z,94695.75
2023-04-01T08:18:27.940Z,94675.53
2023-04-01T08:20:00.989Z,94680.66
2023-04-01T08:21:20.590Z,94679.25
2023-04-01T08:22:27.739Z,94688.31
2023-04-01T08:23:38.255Z,94671.34
2023-04-01T08:24:48.462Z,94685.09
2023-04-01T08:26:31.392Z,94678.25
2023-04-01T08:27:43.009Z,94681.28
2023-04-01T08:28:53.560Z,94677.13
2023-04-01T08:30:00.965Z,94655.72
2023-04-01T08:31:10.459Z,94680.75
2023-04-01T08:32:16.060Z,94675.50
2023-04-01T08:33:28.908Z,94653.53
2023-04-01T08:34:42.432Z,94668.94
2023-04-01T08:35:58.975Z,94662.97
2023-04-01T08:37:08.769Z,94677.00
2023-04-01T08:38:33.730Z,94666.88
2023-04-01T08:39:42.857Z,94654.69
2023-04-01T08:41:01.449Z,94655.50
2023-04-01T08:43:13.414Z,94666.72
2023-04-01T08:44:43.991Z,94656.78
2023-04-01T08:45:55.373Z,94661.31
2023-04-01T08:47:15.623Z,94653.25
2023-04-01T08:48:49.536Z,94652.91
2023-04-01T08:50:21.082Z,94658.25
2023-04-01T08:51:38.562Z,94650.06
2023-04-01T08:52:43.211Z,94655.44
2023-04-01T08:54:30.582Z,94664.44
2023-04-01T08:55:48.199Z,94653.03
2023-04-01T08:57:35.693Z,94645.47
2023-04-01T08:59:26.504Z,94663.81
2023-04-01T09:00:35.073Z,94650.31
2023-04-01T09:02:02.203Z,94664.53
2023-04-01T09:03:36.307Z,94655.69
2023-04-01T09:04:40.812Z,94655.94
2023-04-01T09:06:07.372Z,94658.69
2023-04-01T09:07:44.982Z,94652.47
2023-04-01T09:09:05.597Z,94648.94
2023-04-01T09:10:23.142Z,94659.81
2023-04-01T09:12:02.519Z,94652.53
2023-04-01T09:13:15.050Z,94648.88
2023-04-01T09:14:40.808Z,94648.78
2023-04-01T09:16:36.664Z,94629.34
2023-04-01T09:17:47.322Z,94637.16
2023-04-01T09:19:12.596Z,94641.69
2023-04-01T09:20:17.073Z,94644.72
2023-04-01T09:21:43.174Z,94645.25
2023-04-01T09:23:03.529Z,94647.38
2023-04-01T09:24:20.472Z,94636.09
2023-04-01T09:25:31.487Z,94643.41
2023-04-01T09:27:06.327Z,94643.72
2023-04-01T09:28:11.524Z,94644.47
2023-04-01T09:29:29.368Z,94644.28
2023-04-01T09:30:47.931Z,94649.63
2023-04-01T09:32:02.871Z,94636.75
2023-04-01T09:33:48.606Z,94644.34
2023-04-01T09:34:56.772Z,94642.34
2023-04-01T09:36:38.010Z,94638.31
2023-04-01T09:38:02.796Z,94648.38
2023-04-01T09:39:22.720Z,94645.78
2023-04-01T09:40:39.769Z,94649.50
2023-04-01T09:42:02.199Z,94646.19
2023-04-01T09:43:26.565Z,94647.88
2023-04-01T09:44:34.628Z,94650.75
2023-04-01T09:46:00.075Z,94642.88
2023-04-01T09:47:07.799Z,94650.66
2023-04-01T09:48:31.783Z,94640.72
2023-04-01T09:50:13.289Z,94626.81
2023-04-01T09:51:47.124Z,94641.16
2023-04-01T09:53:03.315Z,94647.44
2023-04-01T09:54:11.482Z,94646.16
2023-04-01T09:55:22.105Z,94632.41
2023-04-01T09:56:45.450Z,94647.31
2023-04-01T09:57:50.294Z,94645.31
2023-04-01T09:59:33.147Z,94647.56
2023-04-01T10:01:25.491Z,94651.69
2023-04-01T10:02:41.495Z,94649.09
2023-04-01T10:04:15.489Z,94643.56
2023-04-01T10:05:38.170Z,94649.31
2023-04-01T10:06:59.713Z,94647.97
2023-04-01T10:08:13.992Z,94653.94
2023-04-01T10:09:41.778Z,94646.69
2023-04-01T10:11:04.930Z,94649.03
2023-04-01T10:12:26.057Z,94642.00
2023-04-01T10:13:39.892Z,94651.63
2023-04-01T10:15:33.385Z,94663.91
2023-04-01T10:17:00.494Z,94652.94
2023-04-01T10:18:34.000Z,94650.84
2023-04-01T10:20:03.415Z,94645.97
2023-04-01T10:21:32.128Z,94663.50
2023-04-01T10:22:55.593Z,94670.75
2023-04-01T10:24:21.847Z,94665.78
2023-04-01T10:26:04.251Z,94667.03
2023-04-01T10:27:17.686Z,94664.44
2023-04-01T10:29:03.879Z,94663.28
2023-04-01T10:30:39.601Z,94674.50
2023-04-01T10:32:06.344Z,94653.28
2023-04-01T10:33:45.451Z,94666.00
2023-04-01T10:35:02.397Z,94665.00
2023-04-01T10:36:16.234Z,94667.09
2023-04-01T10:37:38.719Z,94679.09
2023-04-01T10:38:52.872Z,94667.44
2023-04-01T10:40:26.538Z,94667.34
2023-04-01T10:42:20.219Z,94666.81
2023-04-01T10:44:12.639Z,94666.59
2023-04-01T10:45:35.639Z,94668.56
2023-04-01T10:46:53.024Z,94673.75
2023-04-01T10:47:54.952Z,94663.81
2023-04-01T10:49:12.841Z,94665.47
2023-04-01T10:50:26.238Z,94680.72
2023-04-01T10:51:37.478Z,94677.53
2023-04-01T10:53:06.821Z,94667.25
2023-04-01T10:55:12.334Z,94688.31
2023-04-01T10:56:41.767Z,94682.19
2023-04-01T10:58:10.567Z,94669.78
2023-04-01T11:00:02.641Z,94664.88
2023-04-01T11:02:11.578Z,94672.38
2023-04-01T11:04:23.954Z,94672.66
2023-04-01T11:05:55.836Z,94674.47
2023-04-01T11:07:30.392Z,94681.16
2023-04-01T11:09:06.220Z,94684.22
2023-04-01T11:10:11.530Z,94684.97
2023-04-01T11:11:28.737Z,94676.53
2023-04-01T11:13:01.422Z,94676.22
2023-04-01T11:14:21.464Z,94686.56
2023-04-01T11:15:47.632Z,94677.69
2023-04-01T11:17:14.228Z,94674.88
2023-04-01T11:18:34.303Z,94675.09
2023-04-01T11:20:04.650Z,94672.16
2023-04-01T11:21:27.958Z,94680.00
2023-04-01T11:23:08.866Z,94676.13
2023-04-01T11:24:39.713Z,94673.41
2023-04-01T11:26:10.486Z,94677.25
2023-04-01T11:27:46.046Z,94677.59
2023-04-01T11:29:01.904Z,94677.94
2023-04-01T11:30:42.502Z,94675.34
2023-04-01T11:31:55.343Z,94687.56
2023-04-01T11:33:03.948Z,94674.28
2023-04-01T11:34:30.220Z,94684.50
2023-04-01T11:35:55.957Z,94673.84
2023-04-01T11:37:00.762Z,94676.69
2023-04-01T11:38:24.813Z,94687.81
2023-04-01T11:39:58.183Z,94667.72
2023-04-01T11:41:41.601Z,94676.09
2023-04-01T11:43:33.007Z,94674.16
2023-04-01T11:45:44.777Z,94669.03
2023-04-01T11:47:24.832Z,94671.75
2023-04-01T11:48:50.364Z,94673.06
2023-04-01T11:50:04.972Z,94670.13
2023-04-01T11:51:16.685Z,94676.44
2023-04-01T11:52:30.480Z,94677.25
2023-04-01T11:53:35.278Z,94680.31
2023-04-01T11:54:55.780Z,94678.94
2023-04-01T11:55:57.320Z,94664.25
2023-04-01T11:57:32.510Z,94666.81
2023-04-01T11:58:49.592Z,94679.53
2023-04-01T12:00:04.511Z,94678.31
2023-04-01T12:01:20.783Z,94674.19
2023-04-01T12:02:40.988Z,94682.81
2023-04-01T12:03:59.977Z,94674.81
2023-04-01T12:05:01.929Z,94680.44
2023-04-01T12:06:20.468Z,94677.75
2023-04-01T12:07:46.472Z,94682.25
2023-04-01T12:08:48.058Z,94677.50
2023-04-01T12:09:58.004Z,94682.00
2023-04-01T12:11:08.135Z,94671.34
2023-04-01T12:12:28.334Z,94684.97
2023-04-01T12:14:11.101Z,94675.47
2023-04-01T12:15:18.992Z,94680.38
2023-04-01T12:16:42.582Z,94674.94
2023-04-01T12:18:13.923Z,94689.75
2023-04-01T12:19:30.617Z,94684.41
2023-04-01T12:21:26.024Z,94690.88
2023-04-01T12:22:51.968Z,94689.59
2023-04-01T12:24:21.556Z,94691.00
2023-04-01T12:25:49.796Z,94690.66
2023-04-01T12:27:13.152Z,94675.44
2023-04-01T12:28:17.848Z,94696.63
2023-04-01T12:29:22.416Z,94694.00
2023-04-01T12:30:54.439Z,94701.63
2023-04-01T12:32:24.620Z,94698.69
2023-04-01T12:33:32.026Z,94697.72
2023-04-01T12:34:59.176Z,94700.47
2023-04-01T12:36:09.442Z,94701.25
2023-04-01T12:37:11.087Z,94714.97
2023-04-01T12:38:43.650Z,94707.34
2023-04-01T12:40:23.877Z,94712.19
2023-04-01T12:41:49.779Z,94707.44
2023-04-01T12:42:56.989Z,94705.88
2023-04-01T12:43:58.537Z,94711.81
2023-04-01T12:45:24.526Z,94710.22
2023-04-01T12:46:51.012Z,94691.63
2023-04-01T12:47:57.437Z,94708.03
2023-04-01T12:49:30.265Z,94706.22
2023-04-01T12:51:09.365Z,94702.88
2023-04-01T12:52:13.369Z,94694.41
2023-04-01T12:53:23.811Z,94708.00
2023-04-01T12:54:25.425Z,94704.66
2023-04-01T12:55:40.043Z,94711.38
2023-04-01T12:57:06.938Z,94707.50
2023-04-01T12:58:45.797Z,94696.59
2023-04-01T13:00:00.237Z,94696.91
2023-04-01T13:01:09.656Z,94703.72
2023-04-01T13:02:48.468Z,94687.84
2023-04-01T13:03:50.184Z,94690.66
2023-04-01T13:05:10.652Z,94695.50
2023-04-01T13:06:26.623Z,94700.06
2023-04-01T13:07:47.584Z,94699.75
2023-04-01T13:09:07.919Z,94698.88
2023-04-01T13:10:21.848Z,94695.91
2023-04-01T13:11:51.396Z,94701.19
2023-04-01T13:13:13.221Z,94689.47
2023-04-01T13:14:31.704Z,94696.69
2023-04-01T13:15:48.423Z,94691.69
2023-04-01T13:17:18.848Z,94688.84
2023-04-01T13:18:26.492Z,94691.44
2023-04-01T13:20:04.237Z,94693.28
2023-04-01T13:21:09.867Z,94692.06
2023-04-01T13:22:15.773Z,94689.63
2023-04-01T13:23:48.393Z,94697.72
2023-04-01T13:25:18.064Z,94691.88
2023-04-01T13:26:23.871Z,94690.91
2023-04-01T13:27:52.055Z,94701.97
2023-04-01T13:29:15.677Z,94687.22
2023-04-01T13:30:26.772Z,94691.41
2023-04-01T13:31:56.206Z,94698.19
2023-04-01T13:33:34.432Z,94698.38
2023-04-01T13:34:53.645Z,94696.94
2023-04-01T13:36:36.824Z,94699.47
2023-04-01T13:38:09.344Z,94698.13
2023-04-01T13:39:44.571Z,94684.31
2023-04-01T13:41:01.660Z,94695.25
2023-04-01T13:42:26.008Z,94696.47
2023-04-01T13:43:33.362Z,94706.72
2023-04-01T13:44:49.177Z,94706.09
2023-04-01T13:46:02.711Z,94695.25
2023-04-01T13:47:10.259Z,94700.44
2023-04-01T13:48:20.868Z,94700.78
2023-04-01T13:49:25.394Z,94697.44
2023-04-01T13:50:35.997Z,94708.78
2023-04-01T13:52:28.394Z,94704.00
2023-04-01T13:53:33.668Z,94712.75
2023-04-01T13:54:53.837Z,94707.47
2023-04-01T13:56:01.632Z,94713.38
2023-04-01T13:57:27.405Z,94711.25
2023-04-01T13:58:34.779Z,94721.72
2023-04-01T13:59:58.299Z,94709.84
2023-04-01T14:01:06.085Z,94711.41
2023-04-01T14:02:45.739Z,94693.69
2023-04-01T14:04:23.201Z,94711.50
2023-04-01T14:05:41.973Z,94717.78
2023-04-01T14:07:13.894Z,94706.88
2023-04-01T14:08:30.752Z,94722.09
2023-04-01T14:09:41.891Z,94721.41
2023-04-01T14:11:28.600Z,94719.25
2023-04-01T14:12:32.915Z,94716.34
2023-04-01T14:14:16.588Z,94716.53
2023-04-01T14:15:37.015Z,94709.38
2023-04-01T14:17:03.020Z,94717.31
2023-04-01T14:18:25.015Z,94722.00
2023-04-01T14:19:48.079Z,94714.47
2023-04-01T14:21:08.245Z,94724.09
2023-04-01T14:22:35.289Z,94724.19
2023-04-01T14:23:43.491Z,94723.88
2023-04-01T14:25:23.820Z,94705.44
2023-04-01T14:26:57.609Z,94718.75
2023-04-01T14:28:26.580Z,94717.72